Pagina principale
METAR-TAF:

METAR-TAF

Aeroporti :

Mafikeng, Sudafrica

latitudine: 25-47S, longitudine: 025-32E, altezza: 1281 m

Osservazione

Il bollettino è stato emesso 17 minuti fa, alle 09:00 UTC
Vento 2 kt da ovest/nord-ovest
Temperature 18°C
Umidità 32%
Pressione 1030 hPa
Visibilità 10 km o più
nessuna nube inferiore a 1500 m e nessun cumulonembo

METAR: FAMM 070900Z 29002KT CAVOK 18/01 Q1030 NOSIG

Ora: 11:17 (09:17 UTC)

Previsione

Il bollettino è stato emesso 3 ore e 17 minuti fa, alle 06:00 UTC
Previsione valida dal 07 alle 07 UTC al 07 alle 18 UTC
Vento 3 kt da direzioni variabili
Visibilità 10 km o più
nessuna nube inferiore a 1500 m e nessun cumulonembo

TAF: FAMM 070600Z 0707/0718 VRB03KT CAVOK TX24/0713Z TN09/0718Z

Osservazioni e previsioni meteorologiche di più di 4000 aeroporti (messaggi METAR e TAF).

Le stazioni disponibili sono rappresentate dai dischi gialli e rossi sulla carta.

Puntare il mouse per vedere il nome della stazione.

Clicca sopra per visualizzare le osservazioni e previsioni meteorologiche.

Per cambiare la mappa : fare clic sui pulsanti verdi con una croce nera per ingrandire, il pulsante verde con un trattino per diminuire, o sulla freccia verde per le mappe adiacenti.


METAR-TAF: